createdAt,value
2018-05-23T00:03:01.218Z,95722
2018-05-23T00:07:57.463Z,95767
2018-05-23T00:12:54.185Z,95763
2018-05-23T00:17:51.033Z,95761
2018-05-23T00:22:47.323Z,95765
2018-05-23T00:27:44.392Z,95767
2018-05-23T00:32:41.481Z,95776
2018-05-23T00:37:40.778Z,95771
2018-05-23T00:42:36.880Z,95770
2018-05-23T00:47:33.672Z,95768
2018-05-23T00:52:32.485Z,95759
2018-05-23T00:57:28.945Z,95773
2018-05-23T01:02:26.178Z,95772
2018-05-23T01:07:22.943Z,95771
2018-05-23T01:12:20.034Z,95770
2018-05-23T01:17:16.965Z,95768
2018-05-23T01:22:13.881Z,95698
2018-05-23T01:27:10.817Z,95764
2018-05-23T01:32:07.804Z,95706
2018-05-23T01:37:04.851Z,95758
2018-05-23T01:42:01.591Z,95739
2018-05-23T01:46:58.973Z,95760
2018-05-23T01:51:55.979Z,95752
2018-05-23T01:56:53.304Z,95757
2018-05-23T02:01:50.173Z,95754
2018-05-23T02:06:47.314Z,95753
2018-05-23T02:11:44.362Z,95752
2018-05-23T02:16:41.795Z,95752
2018-05-23T02:21:38.609Z,95750
2018-05-23T02:26:36.274Z,95750
2018-05-23T02:31:33.125Z,95734
2018-05-23T02:36:29.702Z,95756
2018-05-23T02:41:27.414Z,95749
2018-05-23T02:46:24.123Z,95743
2018-05-23T02:51:21.774Z,95745
2018-05-23T02:56:18.561Z,95740
2018-05-23T03:01:15.231Z,95743
2018-05-23T03:06:12.104Z,95744
2018-05-23T03:11:09.344Z,95750
2018-05-23T03:16:07.021Z,95762
2018-05-23T03:21:05.962Z,95753
2018-05-23T03:26:04.677Z,95756
2018-05-23T03:31:01.303Z,95765
2018-05-23T03:36:02.068Z,95767
2018-05-23T03:41:00.314Z,95775
2018-05-23T03:45:58.867Z,95779
2018-05-23T03:50:59.497Z,95787
2018-05-23T03:55:55.816Z,95790
2018-05-23T04:00:53.275Z,95691
2018-05-23T04:05:50.930Z,95796
2018-05-23T04:10:48.602Z,95800
2018-05-23T04:15:46.238Z,95806
2018-05-23T04:20:43.445Z,95798
2018-05-23T04:25:41.414Z,95801
2018-05-23T04:30:38.886Z,95788
2018-05-23T04:35:36.584Z,95797
2018-05-23T04:40:38.575Z,95789
2018-05-23T04:45:41.797Z,95795
2018-05-23T04:50:39.256Z,95788
2018-05-23T04:55:36.616Z,95792
2018-05-23T05:00:34.334Z,95797
2018-05-23T05:05:32.236Z,95798
2018-05-23T05:10:29.873Z,95795
2018-05-23T05:15:26.596Z,95796
2018-05-23T05:20:24.247Z,95801
2018-05-23T05:25:22.105Z,95805
2018-05-23T05:30:20.859Z,95775
2018-05-23T05:35:18.512Z,95810
2018-05-23T05:40:16.585Z,95806
2018-05-23T05:45:14.422Z,95803
2018-05-23T05:50:12.698Z,95809
2018-05-23T05:55:10.638Z,95815
2018-05-23T06:00:08.657Z,95818
2018-05-23T06:05:06.682Z,95822
2018-05-23T06:10:04.189Z,95828
2018-05-23T06:15:02.046Z,95814
2018-05-23T06:19:59.595Z,95820
2018-05-23T06:24:57.592Z,95824
2018-05-23T06:29:57.635Z,95814
2018-05-23T06:34:55.103Z,95819
2018-05-23T06:39:55.078Z,95822
2018-05-23T06:44:52.310Z,95819
2018-05-23T06:49:50.647Z,95806
2018-05-23T06:54:55.299Z,95802
2018-05-23T06:59:51.353Z,95797
2018-05-23T07:04:49.313Z,95794
2018-05-23T07:09:47.393Z,95793
2018-05-23T07:14:46.119Z,95794
2018-05-23T07:19:44.447Z,95788
2018-05-23T07:24:41.943Z,95782
2018-05-23T07:29:40.002Z,95791
2018-05-23T07:34:38.222Z,95778
2018-05-23T07:39:36.356Z,95773
2018-05-23T07:44:34.635Z,95770
2018-05-23T07:49:32.749Z,95759
2018-05-23T07:54:34.644Z,95770
2018-05-23T07:59:31.806Z,95760
2018-05-23T08:04:29.655Z,95765
2018-05-23T08:09:27.730Z,95759
2018-05-23T08:14:26.237Z,95759
2018-05-23T08:19:24.323Z,95761
2018-05-23T08:24:22.428Z,95755
2018-05-23T08:29:20.607Z,95751
2018-05-23T08:34:18.749Z,95757
2018-05-23T08:39:17.161Z,95752
2018-05-23T08:44:15.438Z,95747
2018-05-23T08:49:13.406Z,95677
2018-05-23T08:54:11.906Z,95742
2018-05-23T08:59:10.466Z,95731
2018-05-23T09:04:08.923Z,95740
2018-05-23T09:09:07.719Z,95724
2018-05-23T09:14:06.255Z,95716
2018-05-23T09:19:04.349Z,95728
2018-05-23T09:24:02.273Z,95717
2018-05-23T09:29:00.812Z,95716
2018-05-23T09:33:59.288Z,95695
2018-05-23T09:38:58.020Z,95692
2018-05-23T09:43:56.693Z,95684
2018-05-23T09:48:55.182Z,95666
2018-05-23T09:53:53.820Z,95649
2018-05-23T09:58:52.434Z,95653
2018-05-23T10:03:50.844Z,95656
2018-05-23T10:08:49.112Z,95657
2018-05-23T10:13:47.433Z,95659
2018-05-23T10:18:46.292Z,95653
2018-05-23T10:23:44.665Z,95638
2018-05-23T10:28:43.274Z,95632
2018-05-23T10:33:41.500Z,95632
2018-05-23T10:38:40.021Z,95624
2018-05-23T10:43:38.553Z,95620
2018-05-23T10:48:37.017Z,95613
2018-05-23T10:53:35.532Z,95602
2018-05-23T10:58:33.996Z,95600
2018-05-23T11:03:32.739Z,95587
2018-05-23T11:08:31.087Z,95580
2018-05-23T11:13:29.619Z,95572
2018-05-23T11:18:27.922Z,95577
2018-05-23T11:23:26.912Z,95556
2018-05-23T11:28:25.544Z,95546
2018-05-23T11:33:24.241Z,95533
2018-05-23T11:38:23.094Z,95522
2018-05-23T11:43:21.682Z,95524
2018-05-23T11:48:20.971Z,95553
2018-05-23T11:53:18.879Z,95546
2018-05-23T11:58:18.006Z,95472
2018-05-23T12:03:17.039Z,95495
2018-05-23T12:08:15.963Z,95482
2018-05-23T12:13:14.577Z,95478
2018-05-23T12:18:13.383Z,95524
2018-05-23T12:23:11.460Z,95516
2018-05-23T12:28:10.083Z,95510
2018-05-23T12:33:07.988Z,95486
2018-05-23T12:38:07.075Z,95494
2018-05-23T12:43:05.541Z,95401
2018-05-23T12:48:04.366Z,95453
2018-05-23T12:53:02.711Z,95484
2018-05-23T12:58:00.685Z,95472
2018-05-23T13:02:59.244Z,95476
2018-05-23T13:07:57.667Z,95471
2018-05-23T13:12:56.115Z,95482
2018-05-23T13:17:54.743Z,95478
2018-05-23T13:22:53.256Z,95472
2018-05-23T13:27:51.961Z,95461
2018-05-23T13:32:52.534Z,95468
2018-05-23T13:37:52.294Z,95480
2018-05-23T13:42:52.718Z,95468
2018-05-23T13:47:53.093Z,95403
2018-05-23T13:52:53.314Z,95423
2018-05-23T13:57:54.008Z,95476
2018-05-23T14:02:54.372Z,95468
2018-05-23T14:07:54.740Z,95481
2018-05-23T14:12:54.921Z,95477
2018-05-23T14:17:55.246Z,95478
2018-05-23T14:22:56.070Z,95431
2018-05-23T14:27:56.296Z,95480
2018-05-23T14:32:54.994Z,95461
2018-05-23T14:37:53.970Z,95406
2018-05-23T14:42:52.832Z,95471
2018-05-23T14:47:51.558Z,95492
2018-05-23T14:52:50.731Z,95500
2018-05-23T14:57:49.807Z,95501
2018-05-23T15:02:48.753Z,95492
2018-05-23T15:07:47.772Z,95506
2018-05-23T15:12:46.692Z,95505
2018-05-23T15:17:45.871Z,95517
2018-05-23T15:22:45.296Z,95517
2018-05-23T15:27:44.163Z,95523
2018-05-23T15:32:43.311Z,95512
2018-05-23T15:37:42.120Z,95512
2018-05-23T15:42:41.374Z,95502
2018-05-23T15:47:40.265Z,95503
2018-05-23T15:52:39.459Z,95505
2018-05-23T15:57:38.311Z,95514
2018-05-23T16:02:37.381Z,95508
2018-05-23T16:07:36.583Z,95516
2018-05-23T16:12:35.686Z,95512
2018-05-23T16:17:35.004Z,95506
2018-05-23T16:22:34.010Z,95514
2018-05-23T16:27:33.380Z,95515
2018-05-23T16:32:32.587Z,95513
2018-05-23T16:37:32.266Z,95521
2018-05-23T16:42:31.740Z,95516
2018-05-23T16:47:31.128Z,95505
2018-05-23T16:52:30.770Z,95512
2018-05-23T16:57:30.291Z,95507
2018-05-23T17:02:29.618Z,95500
2018-05-23T17:07:29.119Z,95502
2018-05-23T17:12:28.555Z,95484
2018-05-23T17:17:28.075Z,95482
2018-05-23T17:22:27.330Z,95468
2018-05-23T17:27:26.421Z,95442
2018-05-23T17:32:25.578Z,95447
2018-05-23T17:37:25.151Z,95435
2018-05-23T17:42:24.457Z,95429
2018-05-23T17:47:23.689Z,95421
2018-05-23T17:52:23.261Z,95419
2018-05-23T17:57:22.452Z,95410
2018-05-23T18:02:21.973Z,95407
2018-05-23T18:07:21.454Z,95340
2018-05-23T18:12:20.964Z,95403
2018-05-23T18:17:20.831Z,95395
2018-05-23T18:22:20.364Z,95409
2018-05-23T18:27:19.700Z,95416
2018-05-23T18:32:19.316Z,95420
2018-05-23T18:37:18.798Z,95420
2018-05-23T18:42:17.939Z,95413
2018-05-23T18:47:17.363Z,95419
2018-05-23T18:52:16.377Z,95421
2018-05-23T18:57:15.625Z,95432
2018-05-23T19:02:14.517Z,95432
2018-05-23T19:07:13.468Z,95443
2018-05-23T19:12:12.196Z,95447
2018-05-23T19:17:10.783Z,95463
2018-05-23T19:22:08.726Z,95478
2018-05-23T19:27:07.050Z,95484
2018-05-23T19:32:05.346Z,95485
2018-05-23T19:37:01.424Z,95502
2018-05-23T19:41:57.816Z,95498
2018-05-23T19:46:53.767Z,95498
2018-05-23T19:51:48.436Z,95502
2018-05-23T19:56:42.898Z,95505
2018-05-23T20:01:36.127Z,95502
2018-05-23T20:06:28.575Z,95508
2018-05-23T20:11:19.930Z,95498
2018-05-23T20:16:10.206Z,95504
2018-05-23T20:21:00.039Z,95508
2018-05-23T20:25:47.255Z,95516
2018-05-23T20:30:33.286Z,95519
2018-05-23T20:35:17.681Z,95522
2018-05-23T20:39:59.825Z,95533
2018-05-23T20:44:40.378Z,95527
2018-05-23T20:49:19.073Z,95523
2018-05-23T20:53:56.498Z,95534
2018-05-23T20:58:31.163Z,95519
2018-05-23T21:03:02.966Z,95517
2018-05-23T21:07:33.981Z,95517
2018-05-23T21:12:03.387Z,95505
2018-05-23T21:16:30.306Z,95518
2018-05-23T21:20:53.367Z,95515
2018-05-23T21:25:15.744Z,95522
2018-05-23T21:29:37.307Z,95510
2018-05-23T21:33:57.845Z,95509
2018-05-23T21:38:15.339Z,95512
2018-05-23T21:42:32.466Z,95505
